sensor_id;sensor_type;location;lat;lon;timestamp;temperature;humidity
11736;DHT22;5924;51.398;7.088;2023-02-28T00:01:16;-2.10;99.90
11736;DHT22;5924;51.398;7.088;2023-02-28T00:03:42;-2.10;99.90
11736;DHT22;5924;51.398;7.088;2023-02-28T00:06:08;-2.00;99.90
11736;DHT22;5924;51.398;7.088;2023-02-28T00:08:35;-2.00;99.90
11736;DHT22;5924;51.398;7.088;2023-02-28T00:11:02;-2.00;99.90
11736;DHT22;5924;51.398;7.088;2023-02-28T00:13:28;-2.00;99.90
11736;DHT22;5924;51.398;7.088;2023-02-28T00:16:06;-2.00;99.90
11736;DHT22;5924;51.398;7.088;2023-02-28T00:18:32;-2.00;99.90
11736;DHT22;5924;51.398;7.088;2023-02-28T00:20:58;-2.00;99.90
11736;DHT22;5924;51.398;7.088;2023-02-28T00:23:24;-2.10;99.90
11736;DHT22;5924;51.398;7.088;2023-02-28T00:25:51;-2.10;99.90
11736;DHT22;5924;51.398;7.088;2023-02-28T00:28:17;-2.20;99.90
11736;DHT22;5924;51.398;7.088;2023-02-28T00:30:42;-2.20;99.90
11736;DHT22;5924;51.398;7.088;2023-02-28T00:33:08;-2.30;99.90
11736;DHT22;5924;51.398;7.088;2023-02-28T00:35:34;-2.30;99.90
11736;DHT22;5924;51.398;7.088;2023-02-28T00:37:59;-2.40;99.90
11736;DHT22;5924;51.398;7.088;2023-02-28T00:40:25;-2.40;99.90
11736;DHT22;5924;51.398;7.088;2023-02-28T00:42:51;0.70;99.90
11736;DHT22;5924;51.398;7.088;2023-02-28T00:45:16;-2.40;99.90
11736;DHT22;5924;51.398;7.088;2023-02-28T00:47:42;-2.50;99.90
11736;DHT22;5924;51.398;7.088;2023-02-28T00:50:08;-2.50;99.90
11736;DHT22;5924;51.398;7.088;2023-02-28T00:52:34;-1.30;99.90
11736;DHT22;5924;51.398;7.088;2023-02-28T00:55:00;-3.60;99.90
11736;DHT22;5924;51.398;7.088;2023-02-28T00:57:25;-2.50;99.90
11736;DHT22;5924;51.398;7.088;2023-02-28T00:59:51;-2.50;99.90
11736;DHT22;5924;51.398;7.088;2023-02-28T01:02:20;-2.50;99.90
11736;DHT22;5924;51.398;7.088;2023-02-28T01:04:46;-2.40;99.90
11736;DHT22;5924;51.398;7.088;2023-02-28T01:07:12;-2.40;99.90
11736;DHT22;5924;51.398;7.088;2023-02-28T01:09:39;-2.40;99.90
11736;DHT22;5924;51.398;7.088;2023-02-28T01:12:04;-2.40;99.90
11736;DHT22;5924;51.398;7.088;2023-02-28T01:14:30;-4.10;99.90
11736;DHT22;5924;51.398;7.088;2023-02-28T01:16:56;-2.50;99.90
11736;DHT22;5924;51.398;7.088;2023-02-28T01:19:21;-2.50;99.90
11736;DHT22;5924;51.398;7.088;2023-02-28T01:21:47;-2.60;99.90
11736;DHT22;5924;51.398;7.088;2023-02-28T01:24:13;-2.70;99.90
11736;DHT22;5924;51.398;7.088;2023-02-28T01:26:38;-2.80;99.90
11736;DHT22;5924;51.398;7.088;2023-02-28T01:29:04;-2.80;99.90
11736;DHT22;5924;51.398;7.088;2023-02-28T01:31:30;-2.90;99.90
11736;DHT22;5924;51.398;7.088;2023-02-28T01:33:55;-2.90;99.90
11736;DHT22;5924;51.398;7.088;2023-02-28T01:36:23;-2.90;99.90
11736;DHT22;5924;51.398;7.088;2023-02-28T01:38:49;-3.00;99.90
11736;DHT22;5924;51.398;7.088;2023-02-28T01:41:28;-3.00;99.90
11736;DHT22;5924;51.398;7.088;2023-02-28T01:46:22;-3.10;99.90
11736;DHT22;5924;51.398;7.088;2023-02-28T01:48:54;-0.30;99.90
11736;DHT22;5924;51.398;7.088;2023-02-28T01:53:59;-3.20;99.90
11736;DHT22;5924;51.398;7.088;2023-02-28T01:56:29;-3.30;99.90
11736;DHT22;5924;51.398;7.088;2023-02-28T01:58:56;-3.30;99.90
11736;DHT22;5924;51.398;7.088;2023-02-28T02:01:23;-3.40;99.90
11736;DHT22;5924;51.398;7.088;2023-02-28T02:03:54;-3.40;99.90
11736;DHT22;5924;51.398;7.088;2023-02-28T02:06:34;-3.50;99.90
11736;DHT22;5924;51.398;7.088;2023-02-28T02:09:00;-3.50;99.90
11736;DHT22;5924;51.398;7.088;2023-02-28T02:11:26;-3.50;99.90
11736;DHT22;5924;51.398;7.088;2023-02-28T02:26:21;-3.60;99.90
11736;DHT22;5924;51.398;7.088;2023-02-28T02:35:16;-3.70;99.90
11736;DHT22;5924;51.398;7.088;2023-02-28T02:37:58;-3.60;99.90
11736;DHT22;5924;51.398;7.088;2023-02-28T02:40:43;-3.60;99.90
11736;DHT22;5924;51.398;7.088;2023-02-28T02:43:18;-3.70;99.90
11736;DHT22;5924;51.398;7.088;2023-02-28T02:45:52;-3.70;99.90
11736;DHT22;5924;51.398;7.088;2023-02-28T02:48:23;-3.70;99.90
11736;DHT22;5924;51.398;7.088;2023-02-28T02:50:56;-3.80;99.90
11736;DHT22;5924;51.398;7.088;2023-02-28T02:53:28;-3.80;99.90
11736;DHT22;5924;51.398;7.088;2023-02-28T02:55:56;-3.80;99.90
11736;DHT22;5924;51.398;7.088;2023-02-28T02:58:27;-3.80;99.90
11736;DHT22;5924;51.398;7.088;2023-02-28T03:00:57;-3.80;99.90
11736;DHT22;5924;51.398;7.088;2023-02-28T03:03:25;-3.80;99.90
11736;DHT22;5924;51.398;7.088;2023-02-28T03:05:56;-3.80;99.90
11736;DHT22;5924;51.398;7.088;2023-02-28T03:08:22;-3.90;99.90
11736;DHT22;5924;51.398;7.088;2023-02-28T03:10:52;-3.90;99.90
11736;DHT22;5924;51.398;7.088;2023-02-28T03:27:39;-4.20;99.90
11736;DHT22;5924;51.398;7.088;2023-02-28T03:30:14;-4.20;99.90
11736;DHT22;5924;51.398;7.088;2023-02-28T03:32:53;-4.20;99.90
11736;DHT22;5924;51.398;7.088;2023-02-28T03:35:31;-4.60;99.90
11736;DHT22;5924;51.398;7.088;2023-02-28T03:40:58;-4.20;99.90
11736;DHT22;5924;51.398;7.088;2023-02-28T03:43:29;-4.20;99.90
11736;DHT22;5924;51.398;7.088;2023-02-28T03:45:59;-4.30;99.90
11736;DHT22;5924;51.398;7.088;2023-02-28T03:48:36;-4.30;99.90
11736;DHT22;5924;51.398;7.088;2023-02-28T03:51:03;-4.30;99.90
11736;DHT22;5924;51.398;7.088;2023-02-28T03:53:35;-4.40;99.90
11736;DHT22;5924;51.398;7.088;2023-02-28T03:56:07;-4.40;99.90
11736;DHT22;5924;51.398;7.088;2023-02-28T03:58:51;-4.50;99.90
11736;DHT22;5924;51.398;7.088;2023-02-28T04:01:40;-4.50;99.90
11736;DHT22;5924;51.398;7.088;2023-02-28T04:04:08;-4.50;99.90
11736;DHT22;5924;51.398;7.088;2023-02-28T04:06:34;-4.60;99.90
11736;DHT22;5924;51.398;7.088;2023-02-28T04:09:01;-4.60;99.90
11736;DHT22;5924;51.398;7.088;2023-02-28T04:11:37;-4.60;99.90
11736;DHT22;5924;51.398;7.088;2023-02-28T04:14:04;-2.40;99.90
11736;DHT22;5924;51.398;7.088;2023-02-28T04:16:31;-4.70;99.90
11736;DHT22;5924;51.398;7.088;2023-02-28T04:18:57;-4.70;99.90
11736;DHT22;5924;51.398;7.088;2023-02-28T04:21:39;-4.70;99.90
11736;DHT22;5924;51.398;7.088;2023-02-28T04:24:06;-4.70;99.90
11736;DHT22;5924;51.398;7.088;2023-02-28T04:26:34;-4.70;99.90
11736;DHT22;5924;51.398;7.088;2023-02-28T04:29:01;-4.70;99.90
11736;DHT22;5924;51.398;7.088;2023-02-28T04:31:28;-4.70;99.90
11736;DHT22;5924;51.398;7.088;2023-02-28T04:33:53;-4.70;99.90
11736;DHT22;5924;51.398;7.088;2023-02-28T04:36:19;-4.80;99.90
11736;DHT22;5924;51.398;7.088;2023-02-28T04:38:45;-4.80;99.90
11736;DHT22;5924;51.398;7.088;2023-02-28T04:41:12;-4.80;99.90
11736;DHT22;5924;51.398;7.088;2023-02-28T04:43:38;-4.80;99.90
11736;DHT22;5924;51.398;7.088;2023-02-28T04:46:05;-4.80;99.90
11736;DHT22;5924;51.398;7.088;2023-02-28T04:48:33;-4.80;99.90
11736;DHT22;5924;51.398;7.088;2023-02-28T04:51:04;-4.80;99.90
11736;DHT22;5924;51.398;7.088;2023-02-28T04:53:31;-4.90;99.90
11736;DHT22;5924;51.398;7.088;2023-02-28T04:55:57;-4.80;99.90
11736;DHT22;5924;51.398;7.088;2023-02-28T04:58:23;-4.80;99.90
11736;DHT22;5924;51.398;7.088;2023-02-28T05:00:52;-4.90;99.90
11736;DHT22;5924;51.398;7.088;2023-02-28T05:03:18;-4.90;99.90
11736;DHT22;5924;51.398;7.088;2023-02-28T05:05:44;-4.90;99.90
11736;DHT22;5924;51.398;7.088;2023-02-28T05:08:10;-3.00;99.90
11736;DHT22;5924;51.398;7.088;2023-02-28T05:10:36;-1.90;99.90
11736;DHT22;5924;51.398;7.088;2023-02-28T05:13:01;-5.00;99.90
11736;DHT22;5924;51.398;7.088;2023-02-28T05:15:27;-5.00;99.90
11736;DHT22;5924;51.398;7.088;2023-02-28T05:17:53;-5.00;99.90
11736;DHT22;5924;51.398;7.088;2023-02-28T05:20:18;-4.50;99.90
11736;DHT22;5924;51.398;7.088;2023-02-28T05:22:44;-5.00;99.90
11736;DHT22;5924;51.398;7.088;2023-02-28T05:25:28;-5.00;99.90
11736;DHT22;5924;51.398;7.088;2023-02-28T05:27:53;-5.00;99.90
11736;DHT22;5924;51.398;7.088;2023-02-28T05:30:19;-4.90;99.90
11736;DHT22;5924;51.398;7.088;2023-02-28T05:32:50;-4.90;99.90
11736;DHT22;5924;51.398;7.088;2023-02-28T05:35:16;-4.90;99.90
11736;DHT22;5924;51.398;7.088;2023-02-28T05:37:41;-4.90;99.90
11736;DHT22;5924;51.398;7.088;2023-02-28T05:40:08;-4.90;99.90
11736;DHT22;5924;51.398;7.088;2023-02-28T05:42:36;-4.90;99.90
11736;DHT22;5924;51.398;7.088;2023-02-28T05:45:03;-5.00;99.90
11736;DHT22;5924;51.398;7.088;2023-02-28T05:47:29;-4.30;99.90
11736;DHT22;5924;51.398;7.088;2023-02-28T05:49:55;-5.00;99.90
11736;DHT22;5924;51.398;7.088;2023-02-28T05:52:21;-5.10;99.90
11736;DHT22;5924;51.398;7.088;2023-02-28T05:54:47;-5.10;99.90
11736;DHT22;5924;51.398;7.088;2023-02-28T05:57:13;-5.10;99.90
11736;DHT22;5924;51.398;7.088;2023-02-28T05:59:38;-5.20;99.90
11736;DHT22;5924;51.398;7.088;2023-02-28T06:02:06;-5.20;99.90
11736;DHT22;5924;51.398;7.088;2023-02-28T06:04:31;-5.20;99.90
11736;DHT22;5924;51.398;7.088;2023-02-28T06:06:57;-5.20;99.90
11736;DHT22;5924;51.398;7.088;2023-02-28T06:09:23;-5.20;99.90
11736;DHT22;5924;51.398;7.088;2023-02-28T06:11:49;-5.20;99.90
11736;DHT22;5924;51.398;7.088;2023-02-28T06:14:17;-5.20;99.90
11736;DHT22;5924;51.398;7.088;2023-02-28T06:16:43;-5.20;99.90
11736;DHT22;5924;51.398;7.088;2023-02-28T06:19:10;-5.20;99.90
11736;DHT22;5924;51.398;7.088;2023-02-28T06:21:36;-5.20;99.90
11736;DHT22;5924;51.398;7.088;2023-02-28T06:24:03;-5.30;99.90
11736;DHT22;5924;51.398;7.088;2023-02-28T06:26:29;-5.30;99.90
11736;DHT22;5924;51.398;7.088;2023-02-28T06:28:55;-5.30;99.90
11736;DHT22;5924;51.398;7.088;2023-02-28T06:31:22;-5.20;99.90
11736;DHT22;5924;51.398;7.088;2023-02-28T06:33:48;-5.20;99.90
11736;DHT22;5924;51.398;7.088;2023-02-28T06:36:15;-5.20;99.90
11736;DHT22;5924;51.398;7.088;2023-02-28T06:38:41;-5.20;99.90
11736;DHT22;5924;51.398;7.088;2023-02-28T06:41:07;-3.00;99.90
11736;DHT22;5924;51.398;7.088;2023-02-28T06:43:36;-5.20;99.90
11736;DHT22;5924;51.398;7.088;2023-02-28T06:46:04;-5.20;99.90
11736;DHT22;5924;51.398;7.088;2023-02-28T06:48:30;-5.10;99.90
11736;DHT22;5924;51.398;7.088;2023-02-28T06:53:32;-5.10;99.90
11736;DHT22;5924;51.398;7.088;2023-02-28T06:55:58;-5.10;99.90
11736;DHT22;5924;51.398;7.088;2023-02-28T06:58:23;-5.10;99.90
11736;DHT22;5924;51.398;7.088;2023-02-28T07:00:52;-5.00;99.90
11736;DHT22;5924;51.398;7.088;2023-02-28T07:03:19;-5.00;99.90
11736;DHT22;5924;51.398;7.088;2023-02-28T07:05:45;-5.00;99.90
11736;DHT22;5924;51.398;7.088;2023-02-28T07:08:11;-5.00;99.90
11736;DHT22;5924;51.398;7.088;2023-02-28T07:10:37;-4.90;99.90
11736;DHT22;5924;51.398;7.088;2023-02-28T07:13:04;-4.90;99.90
11736;DHT22;5924;51.398;7.088;2023-02-28T07:15:30;-4.90;99.90
11736;DHT22;5924;51.398;7.088;2023-02-28T07:17:55;-4.80;99.90
11736;DHT22;5924;51.398;7.088;2023-02-28T07:20:22;-4.80;99.90
11736;DHT22;5924;51.398;7.088;2023-02-28T07:22:49;-4.80;99.90
11736;DHT22;5924;51.398;7.088;2023-02-28T07:25:21;-4.80;99.90
11736;DHT22;5924;51.398;7.088;2023-02-28T07:27:47;-4.70;99.90
11736;DHT22;5924;51.398;7.088;2023-02-28T07:30:13;-4.70;99.90
11736;DHT22;5924;51.398;7.088;2023-02-28T07:32:38;-4.60;99.90
11736;DHT22;5924;51.398;7.088;2023-02-28T07:35:04;-4.60;99.90
11736;DHT22;5924;51.398;7.088;2023-02-28T07:37:30;-4.50;99.90
11736;DHT22;5924;51.398;7.088;2023-02-28T07:40:05;-4.50;99.90
11736;DHT22;5924;51.398;7.088;2023-02-28T07:42:34;-4.40;99.90
11736;DHT22;5924;51.398;7.088;2023-02-28T07:45:00;-4.30;99.90
11736;DHT22;5924;51.398;7.088;2023-02-28T07:47:26;-4.30;99.90
11736;DHT22;5924;51.398;7.088;2023-02-28T07:49:51;-4.20;99.90
11736;DHT22;5924;51.398;7.088;2023-02-28T07:52:17;-4.10;99.90
11736;DHT22;5924;51.398;7.088;2023-02-28T07:54:43;-4.10;99.90
11736;DHT22;5924;51.398;7.088;2023-02-28T07:57:09;-4.00;99.90
11736;DHT22;5924;51.398;7.088;2023-02-28T07:59:34;-3.90;99.90
11736;DHT22;5924;51.398;7.088;2023-02-28T08:02:00;-3.80;99.90
11736;DHT22;5924;51.398;7.088;2023-02-28T08:04:26;-3.70;99.90
11736;DHT22;5924;51.398;7.088;2023-02-28T08:06:52;-3.50;99.90
11736;DHT22;5924;51.398;7.088;2023-02-28T08:09:18;-3.30;99.90
11736;DHT22;5924;51.398;7.088;2023-02-28T08:11:44;-3.00;99.90
11736;DHT22;5924;51.398;7.088;2023-02-28T08:14:10;-2.80;99.90
11736;DHT22;5924;51.398;7.088;2023-02-28T08:16:35;-2.50;99.90
11736;DHT22;5924;51.398;7.088;2023-02-28T08:19:01;-2.20;99.90
11736;DHT22;5924;51.398;7.088;2023-02-28T08:21:27;-2.10;99.90
11736;DHT22;5924;51.398;7.088;2023-02-28T08:23:52;-1.80;99.90
11736;DHT22;5924;51.398;7.088;2023-02-28T08:26:19;-1.30;99.90
11736;DHT22;5924;51.398;7.088;2023-02-28T08:28:45;-1.40;99.90
11736;DHT22;5924;51.398;7.088;2023-02-28T08:31:12;-1.20;99.90
11736;DHT22;5924;51.398;7.088;2023-02-28T08:33:39;-1.10;99.90
11736;DHT22;5924;51.398;7.088;2023-02-28T08:36:06;-1.10;99.90
11736;DHT22;5924;51.398;7.088;2023-02-28T08:38:31;-1.10;99.90
11736;DHT22;5924;51.398;7.088;2023-02-28T08:40:59;-1.00;99.90
11736;DHT22;5924;51.398;7.088;2023-02-28T08:43:25;-1.00;99.90
11736;DHT22;5924;51.398;7.088;2023-02-28T08:45:52;2.30;99.90
11736;DHT22;5924;51.398;7.088;2023-02-28T08:48:17;-0.70;99.90
11736;DHT22;5924;51.398;7.088;2023-02-28T08:50:43;-0.50;99.90
11736;DHT22;5924;51.398;7.088;2023-02-28T08:53:09;-0.40;99.90
11736;DHT22;5924;51.398;7.088;2023-02-28T08:55:35;-0.30;99.90
11736;DHT22;5924;51.398;7.088;2023-02-28T08:58:01;-0.30;99.90
11736;DHT22;5924;51.398;7.088;2023-02-28T09:00:26;-0.20;99.90
11736;DHT22;5924;51.398;7.088;2023-02-28T09:02:52;-0.20;99.90
11736;DHT22;5924;51.398;7.088;2023-02-28T09:05:18;-0.10;99.90
11736;DHT22;5924;51.398;7.088;2023-02-28T09:07:43;0.00;99.90
11736;DHT22;5924;51.398;7.088;2023-02-28T09:10:09;-1.70;99.90
11736;DHT22;5924;51.398;7.088;2023-02-28T09:12:35;0.20;99.90
11736;DHT22;5924;51.398;7.088;2023-02-28T09:15:02;0.30;99.90
11736;DHT22;5924;51.398;7.088;2023-02-28T09:17:27;0.40;99.90
11736;DHT22;5924;51.398;7.088;2023-02-28T09:19:53;0.50;99.90
11736;DHT22;5924;51.398;7.088;2023-02-28T09:22:19;0.60;99.90
11736;DHT22;5924;51.398;7.088;2023-02-28T09:24:44;0.70;99.90
11736;DHT22;5924;51.398;7.088;2023-02-28T09:27:10;0.80;99.90
11736;DHT22;5924;51.398;7.088;2023-02-28T09:29:37;0.80;99.90
11736;DHT22;5924;51.398;7.088;2023-02-28T09:32:03;0.90;99.90
11736;DHT22;5924;51.398;7.088;2023-02-28T09:34:31;0.90;99.90
11736;DHT22;5924;51.398;7.088;2023-02-28T09:36:56;1.00;99.90
11736;DHT22;5924;51.398;7.088;2023-02-28T09:39:23;1.10;99.90
11736;DHT22;5924;51.398;7.088;2023-02-28T09:41:52;1.20;99.90
11736;DHT22;5924;51.398;7.088;2023-02-28T09:44:37;1.30;99.90
11736;DHT22;5924;51.398;7.088;2023-02-28T09:47:14;1.50;99.90
11736;DHT22;5924;51.398;7.088;2023-02-28T09:49:46;1.80;99.90
11736;DHT22;5924;51.398;7.088;2023-02-28T09:52:17;2.00;99.90
11736;DHT22;5924;51.398;7.088;2023-02-28T09:54:43;2.10;99.90
11736;DHT22;5924;51.398;7.088;2023-02-28T09:57:13;2.00;99.90
11736;DHT22;5924;51.398;7.088;2023-02-28T10:00:02;2.00;99.90
11736;DHT22;5924;51.398;7.088;2023-02-28T10:05:24;1.90;99.90
11736;DHT22;5924;51.398;7.088;2023-02-28T10:10:28;1.90;99.90
11736;DHT22;5924;51.398;7.088;2023-02-28T10:12:59;2.00;99.90
11736;DHT22;5924;51.398;7.088;2023-02-28T10:15:30;2.20;99.90
11736;DHT22;5924;51.398;7.088;2023-02-28T10:18:04;2.40;99.90
11736;DHT22;5924;51.398;7.088;2023-02-28T10:20:33;2.60;99.90
11736;DHT22;5924;51.398;7.088;2023-02-28T10:23:21;2.70;99.90
11736;DHT22;5924;51.398;7.088;2023-02-28T10:26:01;2.90;99.90
11736;DHT22;5924;51.398;7.088;2023-02-28T10:28:29;3.00;99.90
11736;DHT22;5924;51.398;7.088;2023-02-28T10:30:57;3.10;99.90
11736;DHT22;5924;51.398;7.088;2023-02-28T10:33:25;3.10;99.90
11736;DHT22;5924;51.398;7.088;2023-02-28T10:35:53;3.10;99.90
11736;DHT22;5924;51.398;7.088;2023-02-28T10:38:25;3.20;99.90
11736;DHT22;5924;51.398;7.088;2023-02-28T10:40:51;3.20;99.90
11736;DHT22;5924;51.398;7.088;2023-02-28T10:43:19;3.50;99.90
11736;DHT22;5924;51.398;7.088;2023-02-28T10:50:58;4.00;99.90
11736;DHT22;5924;51.398;7.088;2023-02-28T10:56:20;4.00;99.90
11736;DHT22;5924;51.398;7.088;2023-02-28T11:07:01;4.10;99.90
11736;DHT22;5924;51.398;7.088;2023-02-28T11:12:05;4.20;99.90
11736;DHT22;5924;51.398;7.088;2023-02-28T11:14:47;4.10;99.90
11736;DHT22;5924;51.398;7.088;2023-02-28T11:17:28;3.90;99.90
11736;DHT22;5924;51.398;7.088;2023-02-28T11:20:06;3.90;99.90
11736;DHT22;5924;51.398;7.088;2023-02-28T11:22:38;4.00;99.90
11736;DHT22;5924;51.398;7.088;2023-02-28T11:25:15;3.70;99.90
11736;DHT22;5924;51.398;7.088;2023-02-28T11:27:56;4.20;99.90
11736;DHT22;5924;51.398;7.088;2023-02-28T11:32:50;4.10;99.90
11736;DHT22;5924;51.398;7.088;2023-02-28T11:35:34;4.10;99.90
11736;DHT22;5924;51.398;7.088;2023-02-28T11:38:03;3.90;99.90
11736;DHT22;5924;51.398;7.088;2023-02-28T11:48:58;3.20;99.90
11736;DHT22;5924;51.398;7.088;2023-02-28T11:51:34;3.10;99.90
11736;DHT22;5924;51.398;7.088;2023-02-28T11:54:30;3.30;99.90
11736;DHT22;5924;51.398;7.088;2023-02-28T12:09:08;3.80;99.90
11736;DHT22;5924;51.398;7.088;2023-02-28T12:26:43;4.50;99.90
11736;DHT22;5924;51.398;7.088;2023-02-28T12:29:15;4.50;99.90
11736;DHT22;5924;51.398;7.088;2023-02-28T12:31:49;4.80;99.90
11736;DHT22;5924;51.398;7.088;2023-02-28T12:34:28;4.90;99.90
11736;DHT22;5924;51.398;7.088;2023-02-28T12:36:59;5.00;99.90
11736;DHT22;5924;51.398;7.088;2023-02-28T12:39:29;5.10;99.90
11736;DHT22;5924;51.398;7.088;2023-02-28T12:42:19;5.10;99.80
11736;DHT22;5924;51.398;7.088;2023-02-28T12:44:56;5.30;99.90
11736;DHT22;5924;51.398;7.088;2023-02-28T12:47:23;5.50;99.90
11736;DHT22;5924;51.398;7.088;2023-02-28T12:49:53;5.60;98.70
11736;DHT22;5924;51.398;7.088;2023-02-28T12:55:28;7.70;96.20
11736;DHT22;5924;51.398;7.088;2023-02-28T13:01:12;8.90;90.50
11736;DHT22;5924;51.398;7.088;2023-02-28T13:03:44;9.70;88.60
11736;DHT22;5924;51.398;7.088;2023-02-28T13:08:57;11.40;78.40
11736;DHT22;5924;51.398;7.088;2023-02-28T13:11:43;12.00;75.40
11736;DHT22;5924;51.398;7.088;2023-02-28T13:14:35;12.80;69.40
11736;DHT22;5924;51.398;7.088;2023-02-28T13:19:34;12.70;63.90
11736;DHT22;5924;51.398;7.088;2023-02-28T13:22:02;12.40;59.90
11736;DHT22;5924;51.398;7.088;2023-02-28T13:24:57;11.80;61.70
11736;DHT22;5924;51.398;7.088;2023-02-28T13:27:31;11.10;63.30
11736;DHT22;5924;51.398;7.088;2023-02-28T13:29:57;10.20;65.20
11736;DHT22;5924;51.398;7.088;2023-02-28T14:06:51;8.20;78.90
11736;DHT22;5924;51.398;7.088;2023-02-28T14:11:56;8.20;76.40
11736;DHT22;5924;51.398;7.088;2023-02-28T14:17:15;7.70;77.70
11736;DHT22;5924;51.398;7.088;2023-02-28T14:19:45;7.50;79.40
11736;DHT22;5924;51.398;7.088;2023-02-28T14:22:38;7.30;78.50
11736;DHT22;5924;51.398;7.088;2023-02-28T14:28:07;7.10;80.30
11736;DHT22;5924;51.398;7.088;2023-02-28T14:31:00;7.10;82.70
11736;DHT22;5924;51.398;7.088;2023-02-28T14:38:49;6.70;84.80
11736;DHT22;5924;51.398;7.088;2023-02-28T14:44:01;6.50;83.40
11736;DHT22;5924;51.398;7.088;2023-02-28T14:46:35;6.30;84.00
11736;DHT22;5924;51.398;7.088;2023-02-28T14:49:04;6.30;85.80
11736;DHT22;5924;51.398;7.088;2023-02-28T14:51:30;6.10;86.90
11736;DHT22;5924;51.398;7.088;2023-02-28T14:53:59;6.00;87.70
11736;DHT22;5924;51.398;7.088;2023-02-28T14:56:41;6.00;88.80
11736;DHT22;5924;51.398;7.088;2023-02-28T14:59:26;5.90;88.70
11736;DHT22;5924;51.398;7.088;2023-02-28T15:01:52;8.20;90.70
11736;DHT22;5924;51.398;7.088;2023-02-28T15:04:26;5.90;90.50
11736;DHT22;5924;51.398;7.088;2023-02-28T15:07:28;5.80;90.00
11736;DHT22;5924;51.398;7.088;2023-02-28T15:12:41;5.70;90.70
11736;DHT22;5924;51.398;7.088;2023-02-28T15:15:16;5.60;90.80
11736;DHT22;5924;51.398;7.088;2023-02-28T15:17:45;5.50;90.70
11736;DHT22;5924;51.398;7.088;2023-02-28T15:20:13;5.40;90.60
11736;DHT22;5924;51.398;7.088;2023-02-28T15:22:40;5.30;91.30
11736;DHT22;5924;51.398;7.088;2023-02-28T15:25:07;5.30;91.30
11736;DHT22;5924;51.398;7.088;2023-02-28T15:27:38;5.20;91.40
11736;DHT22;5924;51.398;7.088;2023-02-28T15:30:08;5.20;91.70
11736;DHT22;5924;51.398;7.088;2023-02-28T15:32:36;5.10;92.20
11736;DHT22;5924;51.398;7.088;2023-02-28T15:35:28;5.00;91.90
11736;DHT22;5924;51.398;7.088;2023-02-28T15:38:03;5.00;91.80
11736;DHT22;5924;51.398;7.088;2023-02-28T15:40:36;4.90;92.20
11736;DHT22;5924;51.398;7.088;2023-02-28T15:43:30;4.90;92.10
11736;DHT22;5924;51.398;7.088;2023-02-28T15:46:07;4.90;92.60
11736;DHT22;5924;51.398;7.088;2023-02-28T15:48:44;4.90;92.60
11736;DHT22;5924;51.398;7.088;2023-02-28T15:51:17;4.80;92.40
11736;DHT22;5924;51.398;7.088;2023-02-28T15:53:59;4.80;92.20
11736;DHT22;5924;51.398;7.088;2023-02-28T15:56:31;4.70;92.30
11736;DHT22;5924;51.398;7.088;2023-02-28T15:59:00;4.60;93.10
11736;DHT22;5924;51.398;7.088;2023-02-28T16:01:32;4.50;93.00
11736;DHT22;5924;51.398;7.088;2023-02-28T16:04:05;4.50;93.10
11736;DHT22;5924;51.398;7.088;2023-02-28T16:06:39;4.40;93.00
11736;DHT22;5924;51.398;7.088;2023-02-28T16:09:10;4.40;93.10
11736;DHT22;5924;51.398;7.088;2023-02-28T16:11:43;4.40;93.20
11736;DHT22;5924;51.398;7.088;2023-02-28T16:14:19;4.30;93.20
11736;DHT22;5924;51.398;7.088;2023-02-28T16:16:48;4.30;93.50
11736;DHT22;5924;51.398;7.088;2023-02-28T16:19:14;4.40;94.10
11736;DHT22;5924;51.398;7.088;2023-02-28T16:21:39;4.30;94.50
11736;DHT22;5924;51.398;7.088;2023-02-28T16:24:06;4.20;94.30
11736;DHT22;5924;51.398;7.088;2023-02-28T16:26:31;4.10;94.50
11736;DHT22;5924;51.398;7.088;2023-02-28T16:29:03;4.10;94.70
11736;DHT22;5924;51.398;7.088;2023-02-28T16:31:29;4.00;94.90
11736;DHT22;5924;51.398;7.088;2023-02-28T16:33:55;5.70;96.00
11736;DHT22;5924;51.398;7.088;2023-02-28T16:36:23;3.90;95.60
11736;DHT22;5924;51.398;7.088;2023-02-28T16:38:51;4.00;95.90
11736;DHT22;5924;51.398;7.088;2023-02-28T16:41:22;3.80;96.10
11736;DHT22;5924;51.398;7.088;2023-02-28T16:43:51;3.80;96.50
11736;DHT22;5924;51.398;7.088;2023-02-28T16:46:18;3.70;96.80
11736;DHT22;5924;51.398;7.088;2023-02-28T16:48:45;3.60;97.20
11736;DHT22;5924;51.398;7.088;2023-02-28T16:51:12;3.60;97.60
11736;DHT22;5924;51.398;7.088;2023-02-28T16:53:38;3.50;98.20
11736;DHT22;5924;51.398;7.088;2023-02-28T16:56:04;3.40;98.70
11736;DHT22;5924;51.398;7.088;2023-02-28T16:58:32;3.20;99.10
11736;DHT22;5924;51.398;7.088;2023-02-28T17:01:02;3.10;99.30
11736;DHT22;5924;51.398;7.088;2023-02-28T17:03:29;3.00;99.80
11736;DHT22;5924;51.398;7.088;2023-02-28T17:05:55;2.90;99.90
11736;DHT22;5924;51.398;7.088;2023-02-28T17:08:21;2.80;99.90
11736;DHT22;5924;51.398;7.088;2023-02-28T17:10:47;2.70;99.90
11736;DHT22;5924;51.398;7.088;2023-02-28T17:13:12;2.50;99.90
11736;DHT22;5924;51.398;7.088;2023-02-28T17:15:38;2.40;99.90
11736;DHT22;5924;51.398;7.088;2023-02-28T17:18:06;2.30;99.90
11736;DHT22;5924;51.398;7.088;2023-02-28T17:20:32;2.20;99.90
11736;DHT22;5924;51.398;7.088;2023-02-28T17:22:57;2.10;99.90
11736;DHT22;5924;51.398;7.088;2023-02-28T17:25:23;2.00;99.90
11736;DHT22;5924;51.398;7.088;2023-02-28T17:27:50;1.90;99.90
11736;DHT22;5924;51.398;7.088;2023-02-28T17:30:21;1.80;99.90
11736;DHT22;5924;51.398;7.088;2023-02-28T17:32:47;1.60;99.90
11736;DHT22;5924;51.398;7.088;2023-02-28T17:35:14;1.50;99.90
11736;DHT22;5924;51.398;7.088;2023-02-28T17:37:40;1.40;99.90
11736;DHT22;5924;51.398;7.088;2023-02-28T17:40:13;1.40;99.90
11736;DHT22;5924;51.398;7.088;2023-02-28T17:42:39;1.30;99.90
11736;DHT22;5924;51.398;7.088;2023-02-28T17:45:05;1.20;99.90
11736;DHT22;5924;51.398;7.088;2023-02-28T17:47:31;1.20;99.90
11736;DHT22;5924;51.398;7.088;2023-02-28T17:49:56;1.10;99.90
11736;DHT22;5924;51.398;7.088;2023-02-28T17:52:22;1.00;99.90
11736;DHT22;5924;51.398;7.088;2023-02-28T17:54:48;0.30;99.90
11736;DHT22;5924;51.398;7.088;2023-02-28T17:57:16;0.90;99.90
11736;DHT22;5924;51.398;7.088;2023-02-28T17:59:43;3.00;99.90
11736;DHT22;5924;51.398;7.088;2023-02-28T18:02:13;0.70;99.90
11736;DHT22;5924;51.398;7.088;2023-02-28T18:04:39;0.60;99.90
11736;DHT22;5924;51.398;7.088;2023-02-28T18:07:07;0.50;99.90
11736;DHT22;5924;51.398;7.088;2023-02-28T18:09:35;0.50;99.90
11736;DHT22;5924;51.398;7.088;2023-02-28T18:12:00;0.40;99.90
11736;DHT22;5924;51.398;7.088;2023-02-28T18:14:26;0.30;99.90
11736;DHT22;5924;51.398;7.088;2023-02-28T18:16:53;0.20;99.90
11736;DHT22;5924;51.398;7.088;2023-02-28T18:19:19;0.20;99.90
11736;DHT22;5924;51.398;7.088;2023-02-28T18:21:47;0.10;99.90
11736;DHT22;5924;51.398;7.088;2023-02-28T18:24:14;0.10;99.90
11736;DHT22;5924;51.398;7.088;2023-02-28T18:26:41;0.10;99.90
11736;DHT22;5924;51.398;7.088;2023-02-28T18:29:08;0.00;99.90
11736;DHT22;5924;51.398;7.088;2023-02-28T18:31:34;0.00;99.90
11736;DHT22;5924;51.398;7.088;2023-02-28T18:34:00;-0.10;99.90
11736;DHT22;5924;51.398;7.088;2023-02-28T18:36:26;-0.10;99.90
11736;DHT22;5924;51.398;7.088;2023-02-28T18:38:52;-0.20;99.90
11736;DHT22;5924;51.398;7.088;2023-02-28T18:41:20;-0.20;99.90
11736;DHT22;5924;51.398;7.088;2023-02-28T18:43:46;-0.20;99.90
11736;DHT22;5924;51.398;7.088;2023-02-28T18:46:15;-0.30;99.90
11736;DHT22;5924;51.398;7.088;2023-02-28T18:48:41;-0.30;99.90
11736;DHT22;5924;51.398;7.088;2023-02-28T18:51:09;-0.40;99.90
11736;DHT22;5924;51.398;7.088;2023-02-28T18:53:36;-0.40;99.90
11736;DHT22;5924;51.398;7.088;2023-02-28T18:56:03;-0.50;99.90